Time;durP1;ratioP1;P1;durP2;ratioP2;P2;SDS_P1;SDS_P2;PMS_P1;PMS_P2;Temp;Humidity;BMP_temperature;BMP_pressure;BME280_temperature;BME280_humidity;BME280_pressure;Samples;Min_cycle;Max_cycle;Signal;HPM_P1;HPM_P2
2022/05/05 00:02:10;;;;;;;8.77;6.13;;;;;;;;;;5075055;28;20889;-55
2022/05/05 00:04:36;;;;;;;8.67;6.10;;;;;;;;;;5076062;28;20483;-54
2022/05/05 00:07:03;;;;;;;9.67;6.03;;;;;;;;;;5075555;28;20444;-54
2022/05/05 00:09:29;;;;;;;9.40;6.40;;;;;;;;;;5075471;28;20404;-55
2022/05/05 00:14:40;;;;;;;8.77;5.60;;;;;;;;;;5075780;28;20446;-54
2022/05/05 00:17:08;;;;;;;10.47;7.30;;;;;;;;;;5075497;28;20384;-55
2022/05/05 00:19:35;;;;;;;9.87;6.50;;;;;;;;;;5075191;28;20423;-55
2022/05/05 00:22:01;;;;;;;9.20;6.20;;;;;;;;;;5074625;28;20392;-54
2022/05/05 00:24:27;;;;;;;11.00;6.47;;;;;;;;;;5075287;28;20812;-54
2022/05/05 00:26:53;;;;;;;10.77;6.77;;;;;;;;;;5075286;28;20392;-55
2022/05/05 00:29:20;;;;;;;10.63;6.17;;;;;;;;;;5075067;28;20439;-54
2022/05/05 00:31:46;;;;;;;11.20;6.33;;;;;;;;;;5074454;28;20444;-55
2022/05/05 00:34:12;;;;;;;9.83;6.30;;;;;;;;;;5074872;28;20448;-54
2022/05/05 00:36:38;;;;;;;10.83;5.87;;;;;;;;;;5077331;28;20396;-56
2022/05/05 00:39:05;;;;;;;7.43;5.57;;;;;;;;;;5077690;28;20453;-55
2022/05/05 00:41:38;;;;;;;7.10;5.73;;;;;;;;;;5076487;28;21131;-56
2022/05/05 00:44:05;;;;;;;14.80;6.20;;;;;;;;;;5077600;28;20416;-55
2022/05/05 00:46:32;;;;;;;10.07;5.40;;;;;;;;;;5077718;28;20411;-56
2022/05/05 00:48:58;;;;;;;8.17;6.00;;;;;;;;;;5077645;28;20454;-56
2022/05/05 00:51:24;;;;;;;9.63;6.27;;;;;;;;;;5076146;28;20550;-54
2022/05/05 00:53:51;;;;;;;10.77;6.40;;;;;;;;;;5073537;28;20947;-55
2022/05/05 00:56:18;;;;;;;9.50;5.90;;;;;;;;;;5073522;28;20405;-54
2022/05/05 00:58:44;;;;;;;11.00;6.10;;;;;;;;;;5073462;28;20399;-55
2022/05/05 01:01:10;;;;;;;10.47;6.63;;;;;;;;;;5072131;28;20520;-56
2022/05/05 01:03:37;;;;;;;8.10;5.23;;;;;;;;;;5072532;28;21031;-54
2022/05/05 01:06:04;;;;;;;8.07;5.70;;;;;;;;;;5072929;28;20423;-55
2022/05/05 01:08:30;;;;;;;9.00;5.40;;;;;;;;;;5072912;28;20400;-54
2022/05/05 01:10:56;;;;;;;7.07;5.83;;;;;;;;;;5072235;28;20456;-54
2022/05/05 01:13:23;;;;;;;10.10;5.33;;;;;;;;;;5073042;28;20420;-54
2022/05/05 01:15:49;;;;;;;7.90;5.63;;;;;;;;;;5073047;28;20950;-54
2022/05/05 01:18:15;;;;;;;14.73;5.87;;;;;;;;;;5073184;28;20404;-55
2022/05/05 01:20:49;;;;;;;8.03;5.07;;;;;;;;;;5072923;28;20504;-54
2022/05/05 01:23:15;;;;;;;6.27;4.70;;;;;;;;;;5072945;28;20491;-54
2022/05/05 01:28:26;;;;;;;11.63;5.80;;;;;;;;;;5072881;28;20934;-54
2022/05/05 01:30:52;;;;;;;10.07;5.97;;;;;;;;;;5072360;28;20749;-56
2022/05/05 01:33:22;;;;;;;10.03;6.07;;;;;;;;;;5074088;28;21041;-55
2022/05/05 01:35:49;;;;;;;8.20;5.73;;;;;;;;;;5076872;28;20739;-55
2022/05/05 01:38:17;;;;;;;6.83;4.83;;;;;;;;;;5077185;28;20405;-55
2022/05/05 01:40:52;;;;;;;8.50;5.00;;;;;;;;;;5076938;28;20953;-55
2022/05/05 01:43:21;;;;;;;13.23;5.97;;;;;;;;;;5077241;28;20507;-55
2022/05/05 01:45:47;;;;;;;9.33;5.70;;;;;;;;;;5077566;28;20397;-55
2022/05/05 01:48:14;;;;;;;10.33;6.20;;;;;;;;;;5077121;28;20499;-54
2022/05/05 01:50:40;;;;;;;12.40;5.50;;;;;;;;;;5077218;28;20437;-56
2022/05/05 01:53:06;;;;;;;9.10;5.90;;;;;;;;;;5039154;28;1076778;-55
2022/05/05 01:55:33;;;;;;;8.50;5.90;;;;;;;;;;5077463;28;20179;-55
2022/05/05 01:58:00;;;;;;;8.67;5.77;;;;;;;;;;5077382;28;20426;-55
2022/05/05 02:00:26;;;;;;;9.43;6.03;;;;;;;;;;5077964;28;20893;-55
2022/05/05 02:02:55;;;;;;;14.30;6.30;;;;;;;;;;5076478;28;20776;-56
2022/05/05 02:05:21;;;;;;;10.13;5.60;;;;;;;;;;5076180;28;20401;-55
2022/05/05 02:07:50;;;;;;;18.00;6.33;;;;;;;;;;5077381;28;20916;-54
2022/05/05 02:10:17;;;;;;;7.77;5.70;;;;;;;;;;5077644;28;20479;-55
2022/05/05 02:12:45;;;;;;;8.63;6.00;;;;;;;;;;5076056;28;20825;-54
2022/05/05 02:15:11;;;;;;;7.60;5.10;;;;;;;;;;5074538;28;20763;-54
2022/05/05 02:17:38;;;;;;;9.57;4.93;;;;;;;;;;5073180;28;20411;-54
2022/05/05 02:20:05;;;;;;;9.40;6.07;;;;;;;;;;5073062;28;20401;-54
2022/05/05 02:22:31;;;;;;;11.33;5.90;;;;;;;;;;5071729;28;20787;-55
2022/05/05 02:24:57;;;;;;;6.37;5.10;;;;;;;;;;5072963;28;20408;-54
2022/05/05 02:27:23;;;;;;;7.80;6.17;;;;;;;;;;5072883;28;20432;-54
2022/05/05 02:29:49;;;;;;;10.73;5.90;;;;;;;;;;5072800;28;20435;-55
2022/05/05 02:32:16;;;;;;;11.57;5.90;;;;;;;;;;5070684;28;20539;-54
2022/05/05 02:34:42;;;;;;;9.83;6.57;;;;;;;;;;5072794;28;20397;-56
2022/05/05 02:39:53;;;;;;;12.50;6.40;;;;;;;;;;5072923;28;20915;-54
2022/05/05 02:42:20;;;;;;;7.53;5.13;;;;;;;;;;5071954;28;20420;-54
2022/05/05 02:44:46;;;;;;;11.07;5.57;;;;;;;;;;5072495;28;20397;-56
2022/05/05 02:47:12;;;;;;;11.17;6.87;;;;;;;;;;5072581;28;20408;-54
2022/05/05 02:49:38;;;;;;;11.63;6.43;;;;;;;;;;5072486;28;20488;-54
2022/05/05 02:52:04;;;;;;;8.07;5.63;;;;;;;;;;5071531;28;20610;-54
2022/05/05 02:57:15;;;;;;;9.70;5.87;;;;;;;;;;5072428;28;20795;-54
2022/05/05 02:59:41;;;;;;;13.50;6.00;;;;;;;;;;5072295;28;20400;-55
2022/05/05 03:02:07;;;;;;;6.83;5.90;;;;;;;;;;5071619;28;20397;-55
2022/05/05 03:04:33;;;;;;;18.17;7.13;;;;;;;;;;5072300;28;20396;-55
2022/05/05 03:06:59;;;;;;;8.17;5.80;;;;;;;;;;5072095;28;20400;-56
2022/05/05 03:09:25;;;;;;;7.53;5.90;;;;;;;;;;5072190;28;20405;-54
2022/05/05 03:11:51;;;;;;;13.37;5.73;;;;;;;;;;5071419;28;20824;-54
2022/05/05 03:14:17;;;;;;;9.83;6.10;;;;;;;;;;5072183;28;20427;-55
2022/05/05 03:16:43;;;;;;;11.70;5.80;;;;;;;;;;5072232;28;20908;-54
2022/05/05 03:19:10;;;;;;;10.07;6.60;;;;;;;;;;5072060;28;20824;-54
2022/05/05 03:21:36;;;;;;;9.67;6.80;;;;;;;;;;5071298;28;20447;-55
2022/05/05 03:24:01;;;;;;;10.17;6.53;;;;;;;;;;5072163;28;20432;-54
2022/05/05 03:26:27;;;;;;;13.37;6.60;;;;;;;;;;5072036;28;20465;-54
2022/05/05 03:28:53;;;;;;;6.53;5.93;;;;;;;;;;5071761;28;20415;-54
2022/05/05 03:31:19;;;;;;;7.73;6.20;;;;;;;;;;5071209;28;20501;-55
2022/05/05 03:33:45;;;;;;;10.77;7.40;;;;;;;;;;5070126;28;20427;-55
2022/05/05 03:36:11;;;;;;;7.83;6.00;;;;;;;;;;5071933;28;20668;-54
2022/05/05 03:38:37;;;;;;;14.30;6.80;;;;;;;;;;5071851;28;20388;-55
2022/05/05 03:41:05;;;;;;;13.40;6.10;;;;;;;;;;5071161;28;20403;-54
2022/05/05 03:43:31;;;;;;;10.40;6.33;;;;;;;;;;5071829;28;20892;-55
2022/05/05 03:45:57;;;;;;;9.27;6.20;;;;;;;;;;5071778;28;20404;-55
2022/05/05 03:48:23;;;;;;;10.13;6.50;;;;;;;;;;5071579;28;20400;-54
2022/05/05 03:50:49;;;;;;;10.30;6.50;;;;;;;;;;5071092;28;20404;-56
2022/05/05 03:53:15;;;;;;;10.50;6.60;;;;;;;;;;5071457;28;20479;-56
2022/05/05 03:55:41;;;;;;;8.50;5.90;;;;;;;;;;5071652;28;20413;-55
2022/05/05 03:58:07;;;;;;;11.40;6.50;;;;;;;;;;5071691;28;20435;-54
2022/05/05 04:00:32;;;;;;;8.47;5.80;;;;;;;;;;5071533;28;20819;-54
2022/05/05 04:05:43;;;;;;;13.40;7.30;;;;;;;;;;5071630;28;20423;-53
2022/05/05 04:08:09;;;;;;;12.70;7.07;;;;;;;;;;5071721;28;20404;-54
2022/05/05 04:10:35;;;;;;;12.20;6.70;;;;;;;;;;5071478;28;20396;-54
2022/05/05 04:13:01;;;;;;;10.67;6.63;;;;;;;;;;5071411;28;20551;-54
2022/05/05 04:15:27;;;;;;;11.10;7.17;;;;;;;;;;5071567;28;20400;-54
2022/05/05 04:17:53;;;;;;;10.60;6.93;;;;;;;;;;5071550;28;20389;-55
2022/05/05 04:20:19;;;;;;;13.07;7.10;;;;;;;;;;5071465;28;20431;-55
2022/05/05 04:22:45;;;;;;;13.97;7.30;;;;;;;;;;5070879;28;20477;-56
2022/05/05 04:25:16;;;;;;;9.73;6.77;;;;;;;;;;5070208;28;20452;-54
2022/05/05 04:27:42;;;;;;;15.20;7.50;;;;;;;;;;5071423;28;20839;-55
2022/05/05 04:30:09;;;;;;;12.57;7.67;;;;;;;;;;5071274;28;20453;-54
2022/05/05 04:32:35;;;;;;;7.73;6.50;;;;;;;;;;5070618;28;20819;-54
2022/05/05 04:35:01;;;;;;;9.30;6.60;;;;;;;;;;5071442;28;20945;-55
2022/05/05 04:37:28;;;;;;;15.60;6.93;;;;;;;;;;5071438;28;20884;-54
2022/05/05 04:39:54;;;;;;;12.90;7.63;;;;;;;;;;5071361;28;20397;-54
2022/05/05 04:42:20;;;;;;;15.30;7.17;;;;;;;;;;5070473;28;20428;-55
2022/05/05 04:44:45;;;;;;;11.40;7.23;;;;;;;;;;5071301;28;20427;-55
2022/05/05 04:47:11;;;;;;;9.33;6.90;;;;;;;;;;5074894;28;20790;-54
2022/05/05 04:49:38;;;;;;;14.60;8.00;;;;;;;;;;5074864;28;20447;-55
2022/05/05 04:52:04;;;;;;;9.63;6.40;;;;;;;;;;5073951;28;20467;-55
2022/05/05 04:54:30;;;;;;;10.27;5.83;;;;;;;;;;5074802;28;20396;-55
2022/05/05 04:56:56;;;;;;;17.23;7.50;;;;;;;;;;5074815;28;20407;-54
2022/05/05 04:59:22;;;;;;;14.00;6.60;;;;;;;;;;5074026;28;20404;-54
2022/05/05 05:01:48;;;;;;;14.37;7.20;;;;;;;;;;5073612;28;20408;-55
2022/05/05 05:04:14;;;;;;;9.33;6.60;;;;;;;;;;5073844;28;20432;-55
2022/05/05 05:06:40;;;;;;;12.70;6.50;;;;;;;;;;5074107;28;20402;-54
2022/05/05 05:09:06;;;;;;;13.03;7.47;;;;;;;;;;5073779;28;20405;-54
2022/05/05 05:11:32;;;;;;;9.73;6.33;;;;;;;;;;5073292;28;20456;-54
2022/05/05 05:13:59;;;;;;;10.10;6.43;;;;;;;;;;5073775;28;20770;-54
2022/05/05 05:16:25;;;;;;;10.77;7.53;;;;;;;;;;5073907;28;20400;-55
2022/05/05 05:18:53;;;;;;;10.40;6.60;;;;;;;;;;5074096;28;20401;-54
2022/05/05 05:21:19;;;;;;;14.90;6.90;;;;;;;;;;5073693;28;20404;-55
2022/05/05 05:23:45;;;;;;;13.03;7.77;;;;;;;;;;5074094;28;20963;-54
2022/05/05 05:26:13;;;;;;;7.30;6.60;;;;;;;;;;5067266;28;20409;-54
2022/05/05 05:28:39;;;;;;;15.87;7.93;;;;;;;;;;5061436;28;20496;-54
2022/05/05 05:31:05;;;;;;;10.30;6.43;;;;;;;;;;5053596;28;20485;-55
2022/05/05 05:33:31;;;;;;;9.27;7.57;;;;;;;;;;5054219;28;20470;-54
2022/05/05 05:35:57;;;;;;;10.47;6.40;;;;;;;;;;5053998;28;20455;-54
2022/05/05 05:38:23;;;;;;;9.47;6.53;;;;;;;;;;5053892;28;20444;-54
2022/05/05 05:40:49;;;;;;;12.80;7.83;;;;;;;;;;5053070;28;20427;-56
2022/05/05 05:43:15;;;;;;;14.63;7.30;;;;;;;;;;5053805;28;20460;-55
2022/05/05 05:45:41;;;;;;;13.00;8.17;;;;;;;;;;5053826;28;20401;-54
2022/05/05 05:48:08;;;;;;;19.57;8.03;;;;;;;;;;5053479;28;20433;-54
2022/05/05 05:50:34;;;;;;;9.67;7.70;;;;;;;;;;5069077;28;20469;-56
2022/05/05 05:53:00;;;;;;;14.70;8.13;;;;;;;;;;5052832;28;20967;-54
2022/05/05 05:55:26;;;;;;;14.20;9.27;;;;;;;;;;5053596;28;20889;-54
2022/05/05 05:57:52;;;;;;;13.10;8.07;;;;;;;;;;5052600;28;20408;-54
2022/05/05 06:00:19;;;;;;;13.27;8.27;;;;;;;;;;5053654;28;20887;-56
2022/05/05 06:05:29;;;;;;;16.00;8.30;;;;;;;;;;5052567;28;20429;-55
2022/05/05 06:08:02;;;;;;;10.30;7.10;;;;;;;;;;5052592;28;20425;-54
2022/05/05 06:10:28;;;;;;;11.40;6.60;;;;;;;;;;5052673;28;20414;-55
2022/05/05 06:12:54;;;;;;;15.70;7.90;;;;;;;;;;5052106;28;20469;-55
2022/05/05 06:15:22;;;;;;;10.90;7.10;;;;;;;;;;5052596;28;20459;-55
2022/05/05 06:17:48;;;;;;;16.50;7.70;;;;;;;;;;5052758;28;20372;-54
2022/05/05 06:20:14;;;;;;;10.20;7.67;;;;;;;;;;5053084;28;20421;-56
2022/05/05 06:22:40;;;;;;;8.57;6.40;;;;;;;;;;5052226;28;20426;-56
2022/05/05 06:25:06;;;;;;;10.87;7.57;;;;;;;;;;5052994;28;20928;-56
2022/05/05 06:27:32;;;;;;;10.93;6.30;;;;;;;;;;5053062;28;20410;-55
2022/05/05 06:30:00;;;;;;;12.83;8.10;;;;;;;;;;5052970;28;20494;-55
2022/05/05 06:32:26;;;;;;;10.40;6.80;;;;;;;;;;5052735;28;20461;-56
2022/05/05 06:34:54;;;;;;;15.00;8.53;;;;;;;;;;5057001;28;20789;-55
2022/05/05 06:37:19;;;;;;;6.47;5.87;;;;;;;;;;5075487;28;20412;-55
2022/05/05 06:39:45;;;;;;;7.93;6.10;;;;;;;;;;5074047;28;20415;-54
2022/05/05 06:42:11;;;;;;;9.23;6.53;;;;;;;;;;5071320;28;20429;-54
2022/05/05 06:44:37;;;;;;;10.40;6.87;;;;;;;;;;5072184;28;20425;-56
2022/05/05 06:47:04;;;;;;;12.33;7.50;;;;;;;;;;5072283;28;20414;-56
2022/05/05 06:49:30;;;;;;;10.17;7.30;;;;;;;;;;5072717;28;20381;-55
2022/05/05 06:51:56;;;;;;;11.73;7.17;;;;;;;;;;5074269;28;20473;-55
2022/05/05 06:54:22;;;;;;;8.90;6.93;;;;;;;;;;5072173;28;20440;-55
2022/05/05 06:56:48;;;;;;;12.60;7.70;;;;;;;;;;5072012;28;20412;-55
2022/05/05 06:59:13;;;;;;;9.13;7.23;;;;;;;;;;5071783;28;20385;-55
2022/05/05 07:01:52;;;;;;;13.57;7.50;;;;;;;;;;5071521;28;20938;-54
2022/05/05 07:07:03;;;;;;;11.20;7.33;;;;;;;;;;5072439;28;20576;-54
2022/05/05 07:12:14;;;;;;;13.83;8.40;;;;;;;;;;5071254;28;21028;-56
2022/05/05 07:14:40;;;;;;;12.00;7.97;;;;;;;;;;5071618;28;20738;-55
2022/05/05 07:17:06;;;;;;;11.23;7.03;;;;;;;;;;5072289;28;20425;-55
2022/05/05 07:19:32;;;;;;;11.70;7.90;;;;;;;;;;5073269;28;20386;-55
2022/05/05 07:21:58;;;;;;;14.57;7.93;;;;;;;;;;5072692;28;20379;-56
2022/05/05 07:24:24;;;;;;;12.43;8.00;;;;;;;;;;5072558;28;20749;-55
2022/05/05 07:26:50;;;;;;;12.33;7.17;;;;;;;;;;5072374;28;20504;-56
2022/05/05 07:29:16;;;;;;;12.17;7.90;;;;;;;;;;5072106;28;20387;-55
2022/05/05 07:31:42;;;;;;;15.70;7.90;;;;;;;;;;5071959;28;20426;-55
2022/05/05 07:34:08;;;;;;;15.33;8.70;;;;;;;;;;5072071;28;20463;-56
2022/05/05 07:36:34;;;;;;;11.70;7.40;;;;;;;;;;5071811;28;20885;-56
2022/05/05 07:39:00;;;;;;;15.63;7.57;;;;;;;;;;5071833;28;20375;-56
2022/05/05 07:41:26;;;;;;;14.47;8.27;;;;;;;;;;5070903;28;20411;-56
2022/05/05 07:43:52;;;;;;;9.67;8.30;;;;;;;;;;5071203;28;20427;-56
2022/05/05 07:46:18;;;;;;;15.30;7.90;;;;;;;;;;5071672;28;20409;-56
2022/05/05 07:48:45;;;;;;;14.93;7.37;;;;;;;;;;5071207;28;20415;-56
2022/05/05 07:51:11;;;;;;;13.30;6.70;;;;;;;;;;5070865;28;20372;-56
2022/05/05 07:53:37;;;;;;;12.33;7.83;;;;;;;;;;5071134;28;20490;-56
2022/05/05 07:56:03;;;;;;;18.33;7.00;;;;;;;;;;5070430;28;20762;-55
2022/05/05 07:58:29;;;;;;;12.87;6.90;;;;;;;;;;5071244;28;20425;-56
2022/05/05 08:00:55;;;;;;;10.30;6.37;;;;;;;;;;5071202;28;20390;-56
2022/05/05 08:03:21;;;;;;;14.50;6.90;;;;;;;;;;5071064;28;20524;-56
2022/05/05 08:05:48;;;;;;;11.90;6.80;;;;;;;;;;5071676;28;20438;-55
2022/05/05 08:08:14;;;;;;;12.43;7.10;;;;;;;;;;5071243;28;20514;-56
2022/05/05 08:10:40;;;;;;;10.77;7.00;;;;;;;;;;5071043;28;20431;-56
2022/05/05 08:13:06;;;;;;;12.77;8.17;;;;;;;;;;5071063;28;20794;-56
2022/05/05 08:15:32;;;;;;;9.77;7.47;;;;;;;;;;5071467;28;20457;-55
2022/05/05 08:17:58;;;;;;;15.33;7.47;;;;;;;;;;5071494;28;20448;-55
2022/05/05 08:20:24;;;;;;;12.23;8.10;;;;;;;;;;5070562;28;20409;-56
2022/05/05 08:22:50;;;;;;;14.80;8.07;;;;;;;;;;5074428;28;20493;-55
2022/05/05 08:30:46;;;;;;;15.70;7.70;;;;;;;;;;5075481;28;20903;-56
2022/05/05 08:33:12;;;;;;;17.80;8.60;;;;;;;;;;5075525;28;20489;-56
2022/05/05 08:35:40;;;;;;;14.33;7.33;;;;;;;;;;5075968;28;20407;-56
2022/05/05 08:38:06;;;;;;;12.53;6.60;;;;;;;;;;5075453;28;20424;-56
2022/05/05 08:40:35;;;;;;;12.13;7.20;;;;;;;;;;5075598;28;20396;-56
2022/05/05 08:43:01;;;;;;;16.40;8.40;;;;;;;;;;5074770;28;20489;-56
2022/05/05 08:45:29;;;;;;;12.90;8.77;;;;;;;;;;5074850;28;20500;-55
2022/05/05 08:47:55;;;;;;;14.97;8.60;;;;;;;;;;5074499;28;20428;-55
2022/05/05 08:50:21;;;;;;;17.53;8.73;;;;;;;;;;5074600;28;20478;-55
2022/05/05 08:52:50;;;;;;;16.53;8.30;;;;;;;;;;5073615;28;20810;-55
2022/05/05 08:55:17;;;;;;;13.63;8.00;;;;;;;;;;5074729;28;20454;-55
2022/05/05 08:57:43;;;;;;;15.20;9.10;;;;;;;;;;5074405;28;20422;-55
2022/05/05 09:00:10;;;;;;;15.57;8.13;;;;;;;;;;5074512;28;20432;-55
2022/05/05 09:02:38;;;;;;;14.33;8.53;;;;;;;;;;5073058;28;20435;-55
2022/05/05 09:05:04;;;;;;;15.10;9.50;;;;;;;;;;5062000;28;20449;-55
2022/05/05 09:07:46;;;;;;;12.80;8.93;;;;;;;;;;5073923;28;20420;-56
2022/05/05 09:10:13;;;;;;;17.13;10.03;;;;;;;;;;5074412;28;20491;-55
2022/05/05 09:12:39;;;;;;;14.53;8.80;;;;;;;;;;5073206;28;20517;-55
2022/05/05 09:15:09;;;;;;;19.83;10.30;;;;;;;;;;5074041;28;20798;-55
2022/05/05 09:17:35;;;;;;;14.83;10.10;;;;;;;;;;5073633;28;20424;-55
2022/05/05 09:20:03;;;;;;;15.40;10.40;;;;;;;;;;5073977;28;20483;-56
2022/05/05 09:22:29;;;;;;;15.17;11.40;;;;;;;;;;5072975;28;20515;-55
2022/05/05 09:24:57;;;;;;;20.60;8.47;;;;;;;;;;5074058;28;20491;-56
2022/05/05 09:27:28;;;;;;;12.43;9.30;;;;;;;;;;5073635;28;20844;-55
2022/05/05 09:30:14;;;;;;;14.40;9.10;;;;;;;;;;5073818;28;20934;-55
2022/05/05 09:32:41;;;;;;;20.33;9.67;;;;;;;;;;5072589;28;20464;-55
2022/05/05 09:35:10;;;;;;;14.40;9.27;;;;;;;;;;5073666;28;20404;-55
2022/05/05 09:37:36;;;;;;;23.90;10.77;;;;;;;;;;5073892;28;20471;-55
2022/05/05 09:40:03;;;;;;;15.73;10.83;;;;;;;;;;5073736;28;20405;-55
2022/05/05 09:42:36;;;;;;;15.77;10.03;;;;;;;;;;5072644;28;20882;-56
2022/05/05 09:45:19;;;;;;;13.80;9.13;;;;;;;;;;5073644;28;20407;-55
2022/05/05 09:47:49;;;;;;;16.87;11.17;;;;;;;;;;5073500;28;20422;-55
2022/05/05 09:50:16;;;;;;;19.60;11.10;;;;;;;;;;5073442;28;20453;-56
2022/05/05 09:58:17;;;;;;;19.10;10.00;;;;;;;;;;5069448;28;20418;-56
2022/05/05 10:00:44;;;;;;;15.70;10.97;;;;;;;;;;5072938;28;20453;-56
2022/05/05 10:05:57;;;;;;;16.00;10.43;;;;;;;;;;5073187;28;20394;-55
2022/05/05 10:08:28;;;;;;;19.17;12.33;;;;;;;;;;5073306;28;20424;-55
2022/05/05 10:10:54;;;;;;;15.40;11.63;;;;;;;;;;5072267;28;20393;-55
2022/05/05 10:13:20;;;;;;;18.97;10.63;;;;;;;;;;5072830;28;20463;-55
2022/05/05 10:15:50;;;;;;;18.30;12.87;;;;;;;;;;5072590;28;20709;-56
2022/05/05 10:18:17;;;;;;;19.67;11.97;;;;;;;;;;5052648;28;20407;-55
2022/05/05 10:20:45;;;;;;;18.63;11.30;;;;;;;;;;5052720;28;20459;-55
2022/05/05 10:23:14;;;;;;;16.17;11.17;;;;;;;;;;5052644;28;20447;-55
2022/05/05 10:25:40;;;;;;;19.00;11.50;;;;;;;;;;5052792;28;20410;-57
2022/05/05 10:28:25;;;;;;;16.80;11.17;;;;;;;;;;5072072;28;20420;-55
2022/05/05 10:30:51;;;;;;;17.17;11.30;;;;;;;;;;5071783;28;20407;-56
2022/05/05 10:33:17;;;;;;;16.70;11.63;;;;;;;;;;5072383;28;20456;-56
2022/05/05 10:35:49;;;;;;;14.10;10.57;;;;;;;;;;5072675;28;20400;-55
2022/05/05 10:38:34;;;;;;;21.03;12.00;;;;;;;;;;5072233;28;20471;-55
2022/05/05 10:41:00;;;;;;;18.13;10.60;;;;;;;;;;5069915;28;20438;-56
2022/05/05 10:43:33;;;;;;;15.87;11.50;;;;;;;;;;5071870;28;20446;-55
2022/05/05 10:45:59;;;;;;;17.07;9.63;;;;;;;;;;5072069;28;20790;-56
2022/05/05 10:48:29;;;;;;;17.33;10.83;;;;;;;;;;5073028;28;20414;-56
2022/05/05 10:51:04;;;;;;;14.37;9.60;;;;;;;;;;5071947;28;20423;-56
2022/05/05 10:53:41;;;;;;;18.33;10.20;;;;;;;;;;5072732;28;20552;-57
2022/05/05 10:56:27;;;;;;;15.20;10.43;;;;;;;;;;5072976;28;20938;-57
2022/05/05 10:58:56;;;;;;;17.53;10.67;;;;;;;;;;5073328;28;20961;-56
2022/05/05 11:01:22;;;;;;;14.33;9.47;;;;;;;;;;5072732;28;20415;-56
2022/05/05 11:04:04;;;;;;;13.00;9.60;;;;;;;;;;5073373;28;20420;-57
2022/05/05 11:06:32;;;;;;;15.93;9.03;;;;;;;;;;5053822;28;20894;-57
2022/05/05 11:08:58;;;;;;;16.10;9.90;;;;;;;;;;5068744;28;20444;-56
2022/05/05 11:11:40;;;;;;;12.80;10.00;;;;;;;;;;5068512;28;20424;-56
2022/05/05 11:21:32;;;;;;;15.27;10.03;;;;;;;;;;5071619;28;20434;-57
2022/05/05 11:22:45;;;;;;;14.77;10.97;;;;;;;;;;5070746;28;20474;-56
2022/05/05 11:25:11;;;;;;;16.03;10.10;;;;;;;;;;5071418;28;20425;-58
2022/05/05 11:27:37;;;;;;;14.50;8.53;;;;;;;;;;5058221;28;20808;-58
2022/05/05 11:30:03;;;;;;;13.27;9.23;;;;;;;;;;5071408;28;20416;-57
2022/05/05 11:32:30;;;;;;;15.20;8.90;;;;;;;;;;5059615;28;20459;-57
2022/05/05 11:34:57;;;;;;;13.43;8.67;;;;;;;;;;5070758;28;20423;-56
2022/05/05 11:37:25;;;;;;;11.77;8.50;;;;;;;;;;5071580;28;20401;-57
2022/05/05 11:39:51;;;;;;;11.40;8.70;;;;;;;;;;5071847;28;20893;-57
2022/05/05 11:42:18;;;;;;;16.13;8.50;;;;;;;;;;5070906;28;20412;-57
2022/05/05 11:44:45;;;;;;;12.10;8.30;;;;;;;;;;5082990;28;20415;-57
2022/05/05 11:47:11;;;;;;;11.00;8.30;;;;;;;;;;5076569;28;20453;-57
2022/05/05 11:49:37;;;;;;;14.90;8.60;;;;;;;;;;5073267;28;20420;-57
2022/05/05 11:52:04;;;;;;;8.80;7.10;;;;;;;;;;5067265;28;20464;-61
2022/05/05 11:54:32;;;;;;;8.37;6.73;;;;;;;;;;5070146;28;20546;-57
2022/05/05 11:56:58;;;;;;;10.80;8.10;;;;;;;;;;5073807;28;20408;-57
2022/05/05 12:02:09;;;;;;;8.77;6.20;;;;;;;;;;5073263;28;20398;-57
2022/05/05 12:04:36;;;;;;;8.07;6.27;;;;;;;;;;5091280;28;20477;-57
2022/05/05 12:07:03;;;;;;;18.77;7.67;;;;;;;;;;5094559;28;20414;-57
2022/05/05 12:09:29;;;;;;;11.10;7.00;;;;;;;;;;5094502;28;20399;-57
2022/05/05 12:11:55;;;;;;;12.17;7.80;;;;;;;;;;5093983;28;20469;-57
2022/05/05 12:14:25;;;;;;;11.70;7.83;;;;;;;;;;5080376;28;20446;-56
2022/05/05 12:16:51;;;;;;;11.10;7.60;;;;;;;;;;5068480;28;20513;-57
2022/05/05 12:19:18;;;;;;;17.87;9.03;;;;;;;;;;5072486;28;20977;-57
2022/05/05 12:21:52;;;;;;;14.57;8.13;;;;;;;;;;5074770;28;20914;-56
2022/05/05 12:24:19;;;;;;;13.93;8.90;;;;;;;;;;5089012;28;20445;-56
2022/05/05 12:26:45;;;;;;;12.20;6.47;;;;;;;;;;5095568;28;20427;-57
2022/05/05 12:29:13;;;;;;;11.50;7.30;;;;;;;;;;5095455;28;20411;-56
2022/05/05 12:31:40;;;;;;;12.43;8.20;;;;;;;;;;5095159;28;20403;-56
2022/05/05 12:34:06;;;;;;;9.00;8.10;;;;;;;;;;5082975;28;21019;-57
2022/05/05 12:36:32;;;;;;;12.17;7.13;;;;;;;;;;5075121;28;20487;-57
2022/05/05 12:39:14;;;;;;;16.03;7.87;;;;;;;;;;5074907;28;20412;-57
2022/05/05 12:41:58;;;;;;;10.97;7.47;;;;;;;;;;5072670;28;20445;-57
2022/05/05 12:44:30;;;;;;;13.20;7.30;;;;;;;;;;5088390;28;20495;-57
2022/05/05 12:47:02;;;;;;;8.93;6.20;;;;;;;;;;5095275;28;20451;-57
2022/05/05 12:49:38;;;;;;;8.53;6.80;;;;;;;;;;5094813;28;20456;-57
2022/05/05 12:52:04;;;;;;;8.47;7.37;;;;;;;;;;5094224;28;20461;-57
2022/05/05 12:59:59;;;;;;;7.20;5.53;;;;;;;;;;5074859;28;20426;-56
2022/05/05 13:02:25;;;;;;;17.70;13.00;;;;;;;;;;5073956;28;20424;-57
2022/05/05 13:04:51;;;;;;;17.80;7.67;;;;;;;;;;5092137;28;20424;-56
2022/05/05 13:07:19;;;;;;;9.10;5.10;;;;;;;;;;5094236;28;20513;-56
2022/05/05 13:09:44;;;;;;;5.47;4.90;;;;;;;;;;5094766;28;20413;-56
2022/05/05 13:12:11;;;;;;;4.67;4.13;;;;;;;;;;5094119;28;20465;-56
2022/05/05 13:14:37;;;;;;;8.70;4.93;;;;;;;;;;5078949;28;20422;-56
2022/05/05 13:17:03;;;;;;;9.40;4.73;;;;;;;;;;5074501;28;20398;-56
2022/05/05 13:19:29;;;;;;;6.50;4.27;;;;;;;;;;5074796;28;20401;-56
2022/05/05 13:21:56;;;;;;;6.53;4.10;;;;;;;;;;5073646;28;20402;-56
2022/05/05 13:24:22;;;;;;;5.53;4.40;;;;;;;;;;5087333;28;20452;-56
2022/05/05 13:26:48;;;;;;;7.83;4.50;;;;;;;;;;5094546;28;20926;-56
2022/05/05 13:29:14;;;;;;;4.63;4.23;;;;;;;;;;5094470;28;20902;-56
2022/05/05 13:31:41;;;;;;;5.10;3.60;;;;;;;;;;5093617;28;20399;-56
2022/05/05 13:34:08;;;;;;;7.53;4.37;;;;;;;;;;5084171;28;20441;-56
2022/05/05 13:36:35;;;;;;;7.47;4.70;;;;;;;;;;5074087;28;20892;-56
2022/05/05 13:39:01;;;;;;;9.50;5.20;;;;;;;;;;5075201;28;20403;-56
2022/05/05 13:41:27;;;;;;;6.30;3.63;;;;;;;;;;5093610;28;20490;-57
2022/05/05 13:43:53;;;;;;;5.63;4.33;;;;;;;;;;5094230;28;20423;-56
2022/05/05 13:46:19;;;;;;;5.30;4.77;;;;;;;;;;5094105;28;20402;-57
2022/05/05 13:48:45;;;;;;;8.47;5.73;;;;;;;;;;5094097;28;20408;-56
2022/05/05 13:51:12;;;;;;;8.10;5.67;;;;;;;;;;5074437;28;20426;-56
2022/05/05 13:53:38;;;;;;;4.87;4.43;;;;;;;;;;5089129;28;20463;-56
2022/05/05 13:56:04;;;;;;;7.90;5.07;;;;;;;;;;5093976;28;20826;-57
2022/05/05 13:58:30;;;;;;;10.60;4.27;;;;;;;;;;5093901;28;20486;-57
2022/05/05 14:00:56;;;;;;;5.10;4.47;;;;;;;;;;5093234;28;20443;-57
2022/05/05 14:03:22;;;;;;;8.53;3.13;;;;;;;;;;5083361;28;20451;-57
2022/05/05 14:05:48;;;;;;;3.40;3.10;;;;;;;;;;5073611;28;20410;-56
2022/05/05 14:13:43;;;;;;;5.67;3.33;;;;;;;;;;5088356;28;20528;-56
2022/05/05 14:16:10;;;;;;;3.80;3.47;;;;;;;;;;5093569;28;20768;-56
2022/05/05 14:18:37;;;;;;;3.47;3.17;;;;;;;;;;5092455;28;21073;-56
2022/05/05 14:21:03;;;;;;;4.73;3.27;;;;;;;;;;5092841;28;20438;-56
2022/05/05 14:23:29;;;;;;;4.03;3.60;;;;;;;;;;5080069;28;20472;-56
2022/05/05 14:25:55;;;;;;;6.83;4.30;;;;;;;;;;5073120;28;20462;-56
2022/05/05 14:28:21;;;;;;;11.43;4.10;;;;;;;;;;5072961;28;20406;-56
2022/05/05 14:30:47;;;;;;;10.23;3.87;;;;;;;;;;5072426;28;20404;-56
2022/05/05 14:33:12;;;;;;;4.40;4.07;;;;;;;;;;5083085;28;20498;-56
2022/05/05 14:35:38;;;;;;;4.43;4.03;;;;;;;;;;5093156;28;20403;-56
2022/05/05 14:38:05;;;;;;;4.70;3.77;;;;;;;;;;5082014;28;20983;-56
2022/05/05 14:40:31;;;;;;;4.80;4.30;;;;;;;;;;5072626;28;20887;-56
2022/05/05 14:42:57;;;;;;;7.70;4.37;;;;;;;;;;5072015;28;20431;-56
2022/05/05 14:45:23;;;;;;;7.33;4.30;;;;;;;;;;5072694;28;20776;-56
2022/05/05 14:47:49;;;;;;;4.20;3.80;;;;;;;;;;5080259;28;20422;-56
2022/05/05 14:50:15;;;;;;;5.30;3.70;;;;;;;;;;5093004;28;20414;-57
2022/05/05 14:52:41;;;;;;;3.97;3.50;;;;;;;;;;5092003;28;20527;-57
2022/05/05 14:55:08;;;;;;;3.77;3.43;;;;;;;;;;5092804;28;20444;-56
2022/05/05 14:57:34;;;;;;;8.27;4.30;;;;;;;;;;5087225;28;20470;-56
2022/05/05 15:00:00;;;;;;;4.63;3.67;;;;;;;;;;5072352;28;20410;-56
2022/05/05 15:02:25;;;;;;;5.00;3.07;;;;;;;;;;5086880;28;20443;-56
2022/05/05 15:04:51;;;;;;;3.23;2.93;;;;;;;;;;5092742;28;20415;-56
2022/05/05 15:07:17;;;;;;;6.90;3.77;;;;;;;;;;5092619;28;20400;-56
2022/05/05 15:09:43;;;;;;;7.63;4.00;;;;;;;;;;5072413;28;20548;-56
2022/05/05 15:12:09;;;;;;;6.20;4.30;;;;;;;;;;5083399;28;20927;-56
2022/05/05 15:14:36;;;;;;;7.47;3.00;;;;;;;;;;5083137;28;20423;-56
2022/05/05 15:17:06;;;;;;;5.53;3.73;;;;;;;;;;5071363;28;20403;-56
2022/05/05 15:19:35;;;;;;;4.03;3.63;;;;;;;;;;5071590;28;20781;-56
2022/05/05 15:22:01;;;;;;;5.43;3.73;;;;;;;;;;5081505;28;20788;-57
2022/05/05 15:24:27;;;;;;;8.00;5.70;;;;;;;;;;5092334;28;20408;-56
2022/05/05 15:26:53;;;;;;;10.30;7.00;;;;;;;;;;5083837;28;20991;-56
2022/05/05 15:29:19;;;;;;;3.43;3.00;;;;;;;;;;5071389;28;20440;-57